Terminal Aerodrome Forecast
Issued by NWS

Home | Current Version | Previous Version | Text Only | Print | Product List | Glossary On
Versions: 1 2 3 4 5 6 7 8 9 10 11 12 13 14 15 16
000
FTUS46 KSTO 202300
TAFSCK
TAF
KSCK 202331Z 2100/2124 28015KT P6SM VCSH SCT030 BKN045
      TEMPO 2100/2101 6SM -SHRA BKN025
     FM210500 31007KT P6SM SCT250=

USA.gov is the U.S. government's official web portal to all federal, state and local government web resources and services.